sensor_id;sensor_type;location;lat;lon;timestamp;P1;durP1;ratioP1;P2;durP2;ratioP2
42518;SDS011;28147;47.520;18.920;2023-10-19T00:01:10;9.07;;;4.20;;
42518;SDS011;28147;47.520;18.920;2023-10-19T00:03:36;8.68;;;4.32;;
42518;SDS011;28147;47.520;18.920;2023-10-19T00:06:02;7.70;;;4.43;;
42518;SDS011;28147;47.520;18.920;2023-10-19T00:08:30;8.18;;;4.22;;
42518;SDS011;28147;47.520;18.920;2023-10-19T00:11:06;9.25;;;4.00;;
42518;SDS011;28147;47.520;18.920;2023-10-19T00:13:32;9.48;;;4.68;;
42518;SDS011;28147;47.520;18.920;2023-10-19T00:16:01;7.55;;;4.45;;
42518;SDS011;28147;47.520;18.920;2023-10-19T00:18:32;9.82;;;4.82;;
42518;SDS011;28147;47.520;18.920;2023-10-19T00:20:59;8.05;;;4.90;;
42518;SDS011;28147;47.520;18.920;2023-10-19T00:23:36;9.35;;;4.40;;
42518;SDS011;28147;47.520;18.920;2023-10-19T00:26:04;12.48;;;5.25;;
42518;SDS011;28147;47.520;18.920;2023-10-19T00:28:40;11.23;;;5.75;;
42518;SDS011;28147;47.520;18.920;2023-10-19T00:31:06;11.20;;;5.28;;
42518;SDS011;28147;47.520;18.920;2023-10-19T00:33:36;11.18;;;6.22;;
42518;SDS011;28147;47.520;18.920;2023-10-19T00:36:08;11.38;;;6.25;;
42518;SDS011;28147;47.520;18.920;2023-10-19T00:38:38;11.48;;;6.15;;
42518;SDS011;28147;47.520;18.920;2023-10-19T00:41:05;11.23;;;6.38;;
42518;SDS011;28147;47.520;18.920;2023-10-19T00:43:34;13.70;;;7.45;;
42518;SDS011;28147;47.520;18.920;2023-10-19T00:46:08;11.55;;;7.07;;
42518;SDS011;28147;47.520;18.920;2023-10-19T00:48:59;13.57;;;7.68;;
42518;SDS011;28147;47.520;18.920;2023-10-19T00:51:27;12.43;;;7.63;;
42518;SDS011;28147;47.520;18.920;2023-10-19T00:53:56;12.50;;;7.82;;
42518;SDS011;28147;47.520;18.920;2023-10-19T00:56:24;18.10;;;8.23;;
42518;SDS011;28147;47.520;18.920;2023-10-19T00:58:56;14.93;;;8.70;;
42518;SDS011;28147;47.520;18.920;2023-10-19T01:01:32;13.98;;;8.98;;
42518;SDS011;28147;47.520;18.920;2023-10-19T01:04:05;14.30;;;8.77;;
42518;SDS011;28147;47.520;18.920;2023-10-19T01:06:31;15.93;;;10.00;;
42518;SDS011;28147;47.520;18.920;2023-10-19T01:08:58;18.92;;;10.07;;
42518;SDS011;28147;47.520;18.920;2023-10-19T01:11:23;15.82;;;10.25;;
42518;SDS011;28147;47.520;18.920;2023-10-19T01:13:53;16.95;;;10.00;;
42518;SDS011;28147;47.520;18.920;2023-10-19T01:16:19;17.00;;;10.52;;
42518;SDS011;28147;47.520;18.920;2023-10-19T01:18:48;18.88;;;11.07;;
42518;SDS011;28147;47.520;18.920;2023-10-19T01:21:23;16.23;;;10.77;;
42518;SDS011;28147;47.520;18.920;2023-10-19T01:24:06;15.70;;;10.18;;
42518;SDS011;28147;47.520;18.920;2023-10-19T01:26:32;19.20;;;10.65;;
42518;SDS011;28147;47.520;18.920;2023-10-19T01:29:02;14.68;;;8.65;;
42518;SDS011;28147;47.520;18.920;2023-10-19T01:31:34;16.45;;;11.35;;
42518;SDS011;28147;47.520;18.920;2023-10-19T01:34:04;19.27;;;11.57;;
42518;SDS011;28147;47.520;18.920;2023-10-19T01:36:34;22.00;;;11.48;;
42518;SDS011;28147;47.520;18.920;2023-10-19T01:39:09;21.88;;;12.60;;
42518;SDS011;28147;47.520;18.920;2023-10-19T01:41:36;18.48;;;12.70;;
42518;SDS011;28147;47.520;18.920;2023-10-19T01:44:02;21.60;;;12.45;;
42518;SDS011;28147;47.520;18.920;2023-10-19T01:46:38;26.73;;;14.10;;
42518;SDS011;28147;47.520;18.920;2023-10-19T01:49:04;20.52;;;13.90;;
42518;SDS011;28147;47.520;18.920;2023-10-19T01:51:33;25.92;;;14.52;;
42518;SDS011;28147;47.520;18.920;2023-10-19T01:54:05;27.15;;;14.45;;
42518;SDS011;28147;47.520;18.920;2023-10-19T01:56:32;20.65;;;14.18;;
42518;SDS011;28147;47.520;18.920;2023-10-19T01:59:01;23.35;;;15.18;;
42518;SDS011;28147;47.520;18.920;2023-10-19T02:01:30;20.75;;;14.00;;
42518;SDS011;28147;47.520;18.920;2023-10-19T02:04:04;23.25;;;14.88;;
42518;SDS011;28147;47.520;18.920;2023-10-19T02:06:31;21.15;;;13.57;;
42518;SDS011;28147;47.520;18.920;2023-10-19T02:08:59;24.13;;;13.98;;
42518;SDS011;28147;47.520;18.920;2023-10-19T02:11:33;24.23;;;14.52;;
42518;SDS011;28147;47.520;18.920;2023-10-19T02:14:02;21.23;;;13.88;;
42518;SDS011;28147;47.520;18.920;2023-10-19T02:16:33;21.33;;;14.20;;
42518;SDS011;28147;47.520;18.920;2023-10-19T02:18:58;20.20;;;13.43;;
42518;SDS011;28147;47.520;18.920;2023-10-19T02:21:26;21.40;;;14.32;;
42518;SDS011;28147;47.520;18.920;2023-10-19T02:23:55;26.17;;;14.03;;
42518;SDS011;28147;47.520;18.920;2023-10-19T02:26:24;21.85;;;14.38;;
42518;SDS011;28147;47.520;18.920;2023-10-19T02:28:52;20.73;;;14.35;;
42518;SDS011;28147;47.520;18.920;2023-10-19T02:31:18;26.73;;;15.63;;
42518;SDS011;28147;47.520;18.920;2023-10-19T02:33:56;22.80;;;16.25;;
42518;SDS011;28147;47.520;18.920;2023-10-19T02:36:24;28.33;;;17.10;;
42518;SDS011;28147;47.520;18.920;2023-10-19T02:38:54;22.88;;;15.48;;
42518;SDS011;28147;47.520;18.920;2023-10-19T02:41:23;21.58;;;14.60;;
42518;SDS011;28147;47.520;18.920;2023-10-19T02:43:49;22.17;;;15.77;;
42518;SDS011;28147;47.520;18.920;2023-10-19T02:46:29;22.95;;;14.20;;
42518;SDS011;28147;47.520;18.920;2023-10-19T02:48:59;19.77;;;13.70;;
42518;SDS011;28147;47.520;18.920;2023-10-19T02:51:29;21.48;;;13.68;;
42518;SDS011;28147;47.520;18.920;2023-10-19T02:53:55;24.10;;;14.38;;
42518;SDS011;28147;47.520;18.920;2023-10-19T02:56:21;22.73;;;14.13;;
42518;SDS011;28147;47.520;18.920;2023-10-19T02:58:49;22.00;;;13.93;;
42518;SDS011;28147;47.520;18.920;2023-10-19T03:01:15;21.98;;;14.77;;
42518;SDS011;28147;47.520;18.920;2023-10-19T03:03:52;20.70;;;13.45;;
42518;SDS011;28147;47.520;18.920;2023-10-19T03:06:23;20.00;;;13.20;;
42518;SDS011;28147;47.520;18.920;2023-10-19T03:08:49;19.05;;;12.27;;
42518;SDS011;28147;47.520;18.920;2023-10-19T03:11:25;19.40;;;13.52;;
42518;SDS011;28147;47.520;18.920;2023-10-19T03:13:52;18.73;;;12.30;;
42518;SDS011;28147;47.520;18.920;2023-10-19T03:16:22;18.13;;;11.75;;
42518;SDS011;28147;47.520;18.920;2023-10-19T03:18:48;17.33;;;12.07;;
42518;SDS011;28147;47.520;18.920;2023-10-19T03:21:16;17.95;;;12.15;;
42518;SDS011;28147;47.520;18.920;2023-10-19T03:23:44;21.27;;;12.60;;
42518;SDS011;28147;47.520;18.920;2023-10-19T03:26:09;20.80;;;14.02;;
42518;SDS011;28147;47.520;18.920;2023-10-19T03:28:55;24.67;;;14.48;;
42518;SDS011;28147;47.520;18.920;2023-10-19T03:31:22;24.00;;;15.00;;
42518;SDS011;28147;47.520;18.920;2023-10-19T03:33:51;26.63;;;15.07;;
42518;SDS011;28147;47.520;18.920;2023-10-19T03:36:22;24.25;;;15.43;;
42518;SDS011;28147;47.520;18.920;2023-10-19T03:38:49;29.90;;;16.30;;
42518;SDS011;28147;47.520;18.920;2023-10-19T03:41:19;24.98;;;15.57;;
42518;SDS011;28147;47.520;18.920;2023-10-19T03:43:51;24.13;;;15.68;;
42518;SDS011;28147;47.520;18.920;2023-10-19T03:46:19;22.60;;;15.10;;
42518;SDS011;28147;47.520;18.920;2023-10-19T03:49:03;31.88;;;17.58;;
42518;SDS011;28147;47.520;18.920;2023-10-19T03:51:35;28.85;;;17.27;;
42518;SDS011;28147;47.520;18.920;2023-10-19T03:54:20;27.70;;;14.77;;
42518;SDS011;28147;47.520;18.920;2023-10-19T03:56:49;25.70;;;14.27;;
42518;SDS011;28147;47.520;18.920;2023-10-19T03:59:16;22.40;;;14.02;;
42518;SDS011;28147;47.520;18.920;2023-10-19T04:01:42;23.58;;;14.35;;
42518;SDS011;28147;47.520;18.920;2023-10-19T04:04:08;22.73;;;14.07;;
42518;SDS011;28147;47.520;18.920;2023-10-19T04:06:35;21.77;;;13.35;;
42518;SDS011;28147;47.520;18.920;2023-10-19T04:09:02;25.52;;;14.23;;
42518;SDS011;28147;47.520;18.920;2023-10-19T04:11:29;23.38;;;13.90;;
42518;SDS011;28147;47.520;18.920;2023-10-19T04:13:58;24.88;;;14.75;;
42518;SDS011;28147;47.520;18.920;2023-10-19T04:16:28;29.30;;;15.73;;
42518;SDS011;28147;47.520;18.920;2023-10-19T04:18:56;27.80;;;14.95;;
42518;SDS011;28147;47.520;18.920;2023-10-19T04:21:23;23.67;;;15.00;;
42518;SDS011;28147;47.520;18.920;2023-10-19T04:23:48;24.13;;;14.43;;
42518;SDS011;28147;47.520;18.920;2023-10-19T04:26:14;23.90;;;14.55;;
42518;SDS011;28147;47.520;18.920;2023-10-19T04:28:43;24.58;;;13.77;;
42518;SDS011;28147;47.520;18.920;2023-10-19T04:31:18;20.15;;;11.82;;
42518;SDS011;28147;47.520;18.920;2023-10-19T04:33:44;17.92;;;11.05;;
42518;SDS011;28147;47.520;18.920;2023-10-19T04:36:13;17.02;;;10.45;;
42518;SDS011;28147;47.520;18.920;2023-10-19T04:38:39;18.20;;;10.38;;
42518;SDS011;28147;47.520;18.920;2023-10-19T04:41:05;20.58;;;13.20;;
42518;SDS011;28147;47.520;18.920;2023-10-19T04:43:35;19.65;;;12.25;;
42518;SDS011;28147;47.520;18.920;2023-10-19T04:46:08;18.65;;;12.00;;
42518;SDS011;28147;47.520;18.920;2023-10-19T04:48:40;18.90;;;10.80;;
42518;SDS011;28147;47.520;18.920;2023-10-19T04:51:07;16.65;;;10.45;;
42518;SDS011;28147;47.520;18.920;2023-10-19T04:53:34;19.02;;;11.02;;
42518;SDS011;28147;47.520;18.920;2023-10-19T04:56:00;14.05;;;9.43;;
42518;SDS011;28147;47.520;18.920;2023-10-19T04:58:28;15.45;;;10.13;;
42518;SDS011;28147;47.520;18.920;2023-10-19T05:00:54;16.70;;;10.52;;
42518;SDS011;28147;47.520;18.920;2023-10-19T05:03:20;16.83;;;10.30;;
42518;SDS011;28147;47.520;18.920;2023-10-19T05:05:45;16.92;;;10.35;;
42518;SDS011;28147;47.520;18.920;2023-10-19T05:08:11;18.20;;;12.25;;
42518;SDS011;28147;47.520;18.920;2023-10-19T05:10:36;17.75;;;11.57;;
42518;SDS011;28147;47.520;18.920;2023-10-19T05:13:02;19.67;;;12.55;;
42518;SDS011;28147;47.520;18.920;2023-10-19T05:15:28;18.45;;;12.18;;
42518;SDS011;28147;47.520;18.920;2023-10-19T05:17:54;20.27;;;12.63;;
42518;SDS011;28147;47.520;18.920;2023-10-19T05:20:19;19.27;;;12.32;;
42518;SDS011;28147;47.520;18.920;2023-10-19T05:22:46;19.27;;;12.98;;
42518;SDS011;28147;47.520;18.920;2023-10-19T05:25:12;21.95;;;13.90;;
42518;SDS011;28147;47.520;18.920;2023-10-19T05:27:38;22.23;;;13.07;;
42518;SDS011;28147;47.520;18.920;2023-10-19T05:30:04;22.30;;;13.85;;
42518;SDS011;28147;47.520;18.920;2023-10-19T05:32:30;23.75;;;12.80;;
42518;SDS011;28147;47.520;18.920;2023-10-19T05:34:56;25.00;;;14.07;;
42518;SDS011;28147;47.520;18.920;2023-10-19T05:37:22;22.70;;;14.18;;
42518;SDS011;28147;47.520;18.920;2023-10-19T05:39:48;21.95;;;13.65;;
42518;SDS011;28147;47.520;18.920;2023-10-19T05:42:16;21.58;;;12.95;;
42518;SDS011;28147;47.520;18.920;2023-10-19T05:44:42;25.30;;;14.80;;
42518;SDS011;28147;47.520;18.920;2023-10-19T05:47:08;22.65;;;14.35;;
42518;SDS011;28147;47.520;18.920;2023-10-19T05:49:33;23.05;;;13.10;;
42518;SDS011;28147;47.520;18.920;2023-10-19T05:51:59;20.33;;;13.38;;
42518;SDS011;28147;47.520;18.920;2023-10-19T05:54:24;22.13;;;13.63;;
42518;SDS011;28147;47.520;18.920;2023-10-19T05:56:50;27.13;;;14.48;;
42518;SDS011;28147;47.520;18.920;2023-10-19T05:59:16;24.80;;;14.75;;
42518;SDS011;28147;47.520;18.920;2023-10-19T06:01:42;20.58;;;12.82;;
42518;SDS011;28147;47.520;18.920;2023-10-19T06:04:11;23.67;;;13.18;;
42518;SDS011;28147;47.520;18.920;2023-10-19T06:06:37;22.45;;;14.65;;
42518;SDS011;28147;47.520;18.920;2023-10-19T06:09:04;22.65;;;14.80;;
42518;SDS011;28147;47.520;18.920;2023-10-19T06:13:59;23.58;;;13.90;;
42518;SDS011;28147;47.520;18.920;2023-10-19T06:16:25;22.95;;;12.93;;
42518;SDS011;28147;47.520;18.920;2023-10-19T06:18:50;21.30;;;12.55;;
42518;SDS011;28147;47.520;18.920;2023-10-19T06:21:18;17.23;;;11.07;;
42518;SDS011;28147;47.520;18.920;2023-10-19T06:23:47;21.85;;;12.70;;
42518;SDS011;28147;47.520;18.920;2023-10-19T06:26:12;22.67;;;12.98;;
42518;SDS011;28147;47.520;18.920;2023-10-19T06:28:39;17.10;;;11.25;;
42518;SDS011;28147;47.520;18.920;2023-10-19T06:31:05;22.42;;;12.48;;
42518;SDS011;28147;47.520;18.920;2023-10-19T06:33:31;19.95;;;11.82;;
42518;SDS011;28147;47.520;18.920;2023-10-19T06:35:58;21.83;;;11.48;;
42518;SDS011;28147;47.520;18.920;2023-10-19T06:38:24;22.42;;;13.02;;
42518;SDS011;28147;47.520;18.920;2023-10-19T06:40:50;21.40;;;13.00;;
42518;SDS011;28147;47.520;18.920;2023-10-19T06:43:16;22.98;;;12.70;;
42518;SDS011;28147;47.520;18.920;2023-10-19T06:45:43;23.70;;;13.40;;
42518;SDS011;28147;47.520;18.920;2023-10-19T06:48:09;23.92;;;12.80;;
42518;SDS011;28147;47.520;18.920;2023-10-19T06:50:36;19.83;;;11.15;;
42518;SDS011;28147;47.520;18.920;2023-10-19T06:53:02;20.10;;;11.30;;
42518;SDS011;28147;47.520;18.920;2023-10-19T06:55:30;19.73;;;11.27;;
42518;SDS011;28147;47.520;18.920;2023-10-19T06:57:56;20.85;;;11.43;;
42518;SDS011;28147;47.520;18.920;2023-10-19T07:00:22;21.75;;;14.05;;
42518;SDS011;28147;47.520;18.920;2023-10-19T07:02:51;24.17;;;13.30;;
42518;SDS011;28147;47.520;18.920;2023-10-19T07:05:18;21.98;;;12.35;;
42518;SDS011;28147;47.520;18.920;2023-10-19T07:07:50;20.60;;;11.55;;
42518;SDS011;28147;47.520;18.920;2023-10-19T07:10:17;19.05;;;11.45;;
42518;SDS011;28147;47.520;18.920;2023-10-19T07:12:45;19.63;;;10.77;;
42518;SDS011;28147;47.520;18.920;2023-10-19T07:15:12;20.77;;;12.60;;
42518;SDS011;28147;47.520;18.920;2023-10-19T07:17:41;26.85;;;13.95;;
42518;SDS011;28147;47.520;18.920;2023-10-19T07:20:07;21.73;;;13.35;;
42518;SDS011;28147;47.520;18.920;2023-10-19T07:22:34;20.17;;;11.85;;
42518;SDS011;28147;47.520;18.920;2023-10-19T07:25:04;22.50;;;12.40;;
42518;SDS011;28147;47.520;18.920;2023-10-19T07:27:31;21.05;;;13.07;;
42518;SDS011;28147;47.520;18.920;2023-10-19T07:29:57;23.52;;;14.52;;
42518;SDS011;28147;47.520;18.920;2023-10-19T07:32:22;22.27;;;12.45;;
42518;SDS011;28147;47.520;18.920;2023-10-19T07:34:48;20.40;;;12.20;;
42518;SDS011;28147;47.520;18.920;2023-10-19T07:37:14;22.45;;;12.18;;
42518;SDS011;28147;47.520;18.920;2023-10-19T07:39:48;19.92;;;11.98;;
42518;SDS011;28147;47.520;18.920;2023-10-19T07:42:15;20.90;;;12.43;;
42518;SDS011;28147;47.520;18.920;2023-10-19T07:44:41;19.27;;;12.30;;
42518;SDS011;28147;47.520;18.920;2023-10-19T07:47:06;17.05;;;11.35;;
42518;SDS011;28147;47.520;18.920;2023-10-19T07:49:35;18.50;;;12.05;;
42518;SDS011;28147;47.520;18.920;2023-10-19T07:52:03;19.20;;;11.60;;
42518;SDS011;28147;47.520;18.920;2023-10-19T07:54:35;22.40;;;12.77;;
42518;SDS011;28147;47.520;18.920;2023-10-19T07:57:01;17.58;;;10.65;;
42518;SDS011;28147;47.520;18.920;2023-10-19T07:59:37;18.23;;;11.50;;
42518;SDS011;28147;47.520;18.920;2023-10-19T08:02:03;17.60;;;10.52;;
42518;SDS011;28147;47.520;18.920;2023-10-19T08:04:29;20.25;;;12.43;;
42518;SDS011;28147;47.520;18.920;2023-10-19T08:06:56;26.25;;;14.23;;
42518;SDS011;28147;47.520;18.920;2023-10-19T08:09:24;23.80;;;14.05;;
42518;SDS011;28147;47.520;18.920;2023-10-19T08:11:56;23.08;;;14.52;;
42518;SDS011;28147;47.520;18.920;2023-10-19T08:14:24;22.08;;;13.73;;
42518;SDS011;28147;47.520;18.920;2023-10-19T08:16:53;21.35;;;13.38;;
42518;SDS011;28147;47.520;18.920;2023-10-19T08:19:18;20.42;;;11.70;;
42518;SDS011;28147;47.520;18.920;2023-10-19T08:21:45;16.92;;;11.57;;
42518;SDS011;28147;47.520;18.920;2023-10-19T08:24:10;20.58;;;12.63;;
42518;SDS011;28147;47.520;18.920;2023-10-19T08:26:39;19.83;;;13.98;;
42518;SDS011;28147;47.520;18.920;2023-10-19T08:29:06;24.92;;;14.55;;
42518;SDS011;28147;47.520;18.920;2023-10-19T08:31:38;21.88;;;13.70;;
42518;SDS011;28147;47.520;18.920;2023-10-19T08:34:05;21.67;;;14.77;;
42518;SDS011;28147;47.520;18.920;2023-10-19T08:36:30;20.92;;;12.90;;
42518;SDS011;28147;47.520;18.920;2023-10-19T08:38:56;22.67;;;13.63;;
42518;SDS011;28147;47.520;18.920;2023-10-19T08:41:22;22.38;;;13.25;;
42518;SDS011;28147;47.520;18.920;2023-10-19T08:43:49;22.17;;;14.35;;
42518;SDS011;28147;47.520;18.920;2023-10-19T08:46:16;21.27;;;14.13;;
42518;SDS011;28147;47.520;18.920;2023-10-19T08:48:42;20.15;;;12.77;;
42518;SDS011;28147;47.520;18.920;2023-10-19T08:51:10;20.85;;;13.27;;
42518;SDS011;28147;47.520;18.920;2023-10-19T08:53:38;23.80;;;13.48;;
42518;SDS011;28147;47.520;18.920;2023-10-19T08:56:08;24.27;;;13.10;;
42518;SDS011;28147;47.520;18.920;2023-10-19T08:58:33;22.15;;;13.75;;
42518;SDS011;28147;47.520;18.920;2023-10-19T09:00:59;20.80;;;13.43;;
42518;SDS011;28147;47.520;18.920;2023-10-19T09:03:31;21.45;;;13.00;;
42518;SDS011;28147;47.520;18.920;2023-10-19T09:05:57;22.58;;;14.00;;
42518;SDS011;28147;47.520;18.920;2023-10-19T09:08:26;19.60;;;12.32;;
42518;SDS011;28147;47.520;18.920;2023-10-19T09:11:05;19.98;;;13.25;;
42518;SDS011;28147;47.520;18.920;2023-10-19T09:16:12;25.40;;;13.20;;
42518;SDS011;28147;47.520;18.920;2023-10-19T09:18:39;19.38;;;13.57;;
42518;SDS011;28147;47.520;18.920;2023-10-19T09:21:06;19.90;;;13.63;;
42518;SDS011;28147;47.520;18.920;2023-10-19T09:23:32;22.83;;;13.70;;
42518;SDS011;28147;47.520;18.920;2023-10-19T09:26:00;20.38;;;12.88;;
42518;SDS011;28147;47.520;18.920;2023-10-19T09:28:30;18.85;;;12.00;;
42518;SDS011;28147;47.520;18.920;2023-10-19T09:31:02;16.85;;;12.13;;
42518;SDS011;28147;47.520;18.920;2023-10-19T09:33:29;21.45;;;12.70;;
42518;SDS011;28147;47.520;18.920;2023-10-19T09:35:59;19.60;;;13.95;;
42518;SDS011;28147;47.520;18.920;2023-10-19T09:38:37;19.17;;;12.60;;
42518;SDS011;28147;47.520;18.920;2023-10-19T09:41:13;17.13;;;10.80;;
42518;SDS011;28147;47.520;18.920;2023-10-19T09:43:43;15.88;;;10.90;;
42518;SDS011;28147;47.520;18.920;2023-10-19T09:46:10;19.02;;;11.65;;
42518;SDS011;28147;47.520;18.920;2023-10-19T09:51:10;17.13;;;11.32;;
42518;SDS011;28147;47.520;18.920;2023-10-19T09:53:37;19.08;;;12.15;;
42518;SDS011;28147;47.520;18.920;2023-10-19T09:56:05;22.60;;;13.23;;
42518;SDS011;28147;47.520;18.920;2023-10-19T09:58:36;19.00;;;12.50;;
42518;SDS011;28147;47.520;18.920;2023-10-19T10:01:05;20.35;;;12.73;;
42518;SDS011;28147;47.520;18.920;2023-10-19T10:06:28;22.00;;;14.30;;
42518;SDS011;28147;47.520;18.920;2023-10-19T10:08:54;21.35;;;14.05;;
42518;SDS011;28147;47.520;18.920;2023-10-19T10:11:25;20.33;;;12.88;;
42518;SDS011;28147;47.520;18.920;2023-10-19T10:16:21;19.42;;;13.60;;
42518;SDS011;28147;47.520;18.920;2023-10-19T10:18:55;17.48;;;12.32;;
42518;SDS011;28147;47.520;18.920;2023-10-19T10:21:29;21.40;;;13.88;;
42518;SDS011;28147;47.520;18.920;2023-10-19T10:26:26;23.90;;;13.18;;
42518;SDS011;28147;47.520;18.920;2023-10-19T10:31:34;17.20;;;11.90;;
42518;SDS011;28147;47.520;18.920;2023-10-19T10:34:05;20.33;;;12.88;;
42518;SDS011;28147;47.520;18.920;2023-10-19T10:36:57;19.77;;;13.20;;
42518;SDS011;28147;47.520;18.920;2023-10-19T10:39:25;21.42;;;14.18;;
42518;SDS011;28147;47.520;18.920;2023-10-19T10:41:55;19.90;;;13.10;;
42518;SDS011;28147;47.520;18.920;2023-10-19T10:44:34;20.95;;;13.55;;
42518;SDS011;28147;47.520;18.920;2023-10-19T10:47:00;19.83;;;14.02;;
42518;SDS011;28147;47.520;18.920;2023-10-19T10:49:26;20.92;;;13.20;;
42518;SDS011;28147;47.520;18.920;2023-10-19T10:51:53;20.20;;;13.65;;
42518;SDS011;28147;47.520;18.920;2023-10-19T10:54:21;21.50;;;13.48;;
42518;SDS011;28147;47.520;18.920;2023-10-19T10:56:47;21.17;;;14.05;;
42518;SDS011;28147;47.520;18.920;2023-10-19T10:59:14;20.08;;;13.43;;
42518;SDS011;28147;47.520;18.920;2023-10-19T11:01:40;18.95;;;13.18;;
42518;SDS011;28147;47.520;18.920;2023-10-19T11:04:10;18.45;;;13.07;;
42518;SDS011;28147;47.520;18.920;2023-10-19T11:06:47;20.45;;;13.73;;
42518;SDS011;28147;47.520;18.920;2023-10-19T11:09:16;18.60;;;13.00;;
42518;SDS011;28147;47.520;18.920;2023-10-19T11:11:45;18.52;;;12.52;;
42518;SDS011;28147;47.520;18.920;2023-10-19T11:14:11;17.15;;;12.30;;
42518;SDS011;28147;47.520;18.920;2023-10-19T11:16:36;20.90;;;12.05;;
42518;SDS011;28147;47.520;18.920;2023-10-19T11:19:04;18.90;;;12.23;;
42518;SDS011;28147;47.520;18.920;2023-10-19T11:21:29;20.00;;;12.20;;
42518;SDS011;28147;47.520;18.920;2023-10-19T11:23:55;18.58;;;13.25;;
42518;SDS011;28147;47.520;18.920;2023-10-19T11:26:22;19.17;;;12.68;;
42518;SDS011;28147;47.520;18.920;2023-10-19T11:29:01;18.65;;;12.48;;
42518;SDS011;28147;47.520;18.920;2023-10-19T11:31:29;20.00;;;12.93;;
42518;SDS011;28147;47.520;18.920;2023-10-19T11:34:02;17.48;;;12.32;;
42518;SDS011;28147;47.520;18.920;2023-10-19T11:36:29;16.25;;;11.05;;
42518;SDS011;28147;47.520;18.920;2023-10-19T11:38:54;19.33;;;12.65;;
42518;SDS011;28147;47.520;18.920;2023-10-19T11:41:20;17.40;;;11.88;;
42518;SDS011;28147;47.520;18.920;2023-10-19T11:43:46;17.10;;;12.23;;
42518;SDS011;28147;47.520;18.920;2023-10-19T11:46:13;18.52;;;12.55;;
42518;SDS011;28147;47.520;18.920;2023-10-19T11:48:39;20.27;;;13.07;;
42518;SDS011;28147;47.520;18.920;2023-10-19T11:51:07;19.23;;;11.90;;
42518;SDS011;28147;47.520;18.920;2023-10-19T11:53:34;18.17;;;12.57;;
42518;SDS011;28147;47.520;18.920;2023-10-19T11:56:05;19.02;;;12.48;;
42518;SDS011;28147;47.520;18.920;2023-10-19T11:58:35;18.58;;;12.18;;
42518;SDS011;28147;47.520;18.920;2023-10-19T12:01:03;21.58;;;12.60;;
42518;SDS011;28147;47.520;18.920;2023-10-19T12:03:40;18.15;;;12.98;;
42518;SDS011;28147;47.520;18.920;2023-10-19T12:06:06;18.92;;;12.65;;
42518;SDS011;28147;47.520;18.920;2023-10-19T12:08:33;18.60;;;12.32;;
42518;SDS011;28147;47.520;18.920;2023-10-19T12:10:59;19.90;;;11.85;;
42518;SDS011;28147;47.520;18.920;2023-10-19T12:13:27;17.92;;;11.10;;
42518;SDS011;28147;47.520;18.920;2023-10-19T12:15:53;15.88;;;10.57;;
42518;SDS011;28147;47.520;18.920;2023-10-19T12:18:20;15.90;;;11.40;;
42518;SDS011;28147;47.520;18.920;2023-10-19T12:20:46;19.10;;;11.88;;
42518;SDS011;28147;47.520;18.920;2023-10-19T12:23:13;19.95;;;12.77;;
42518;SDS011;28147;47.520;18.920;2023-10-19T12:25:39;19.40;;;12.07;;
42518;SDS011;28147;47.520;18.920;2023-10-19T12:28:07;17.42;;;12.13;;
42518;SDS011;28147;47.520;18.920;2023-10-19T12:30:33;17.75;;;12.45;;
42518;SDS011;28147;47.520;18.920;2023-10-19T12:33:02;21.10;;;12.55;;
42518;SDS011;28147;47.520;18.920;2023-10-19T12:35:33;16.25;;;10.80;;
42518;SDS011;28147;47.520;18.920;2023-10-19T12:38:14;19.58;;;12.18;;
42518;SDS011;28147;47.520;18.920;2023-10-19T12:40:44;17.95;;;12.75;;
42518;SDS011;28147;47.520;18.920;2023-10-19T12:43:11;20.77;;;13.40;;
42518;SDS011;28147;47.520;18.920;2023-10-19T12:45:37;18.90;;;12.88;;
42518;SDS011;28147;47.520;18.920;2023-10-19T12:48:03;19.00;;;12.90;;
42518;SDS011;28147;47.520;18.920;2023-10-19T12:50:35;20.60;;;12.53;;
42518;SDS011;28147;47.520;18.920;2023-10-19T12:53:01;20.00;;;12.48;;
42518;SDS011;28147;47.520;18.920;2023-10-19T12:55:27;18.13;;;12.85;;
42518;SDS011;28147;47.520;18.920;2023-10-19T12:57:53;19.38;;;13.38;;
42518;SDS011;28147;47.520;18.920;2023-10-19T13:00:18;20.30;;;12.98;;
42518;SDS011;28147;47.520;18.920;2023-10-19T13:03:01;21.45;;;13.82;;
42518;SDS011;28147;47.520;18.920;2023-10-19T13:05:32;19.63;;;12.55;;
42518;SDS011;28147;47.520;18.920;2023-10-19T13:07:58;17.10;;;12.18;;
42518;SDS011;28147;47.520;18.920;2023-10-19T13:10:30;20.90;;;12.63;;
42518;SDS011;28147;47.520;18.920;2023-10-19T13:12:58;16.83;;;12.00;;
42518;SDS011;28147;47.520;18.920;2023-10-19T13:15:31;19.80;;;13.20;;
42518;SDS011;28147;47.520;18.920;2023-10-19T13:18:01;20.00;;;13.73;;
42518;SDS011;28147;47.520;18.920;2023-10-19T13:20:28;20.80;;;12.88;;
42518;SDS011;28147;47.520;18.920;2023-10-19T13:23:00;20.23;;;13.35;;
42518;SDS011;28147;47.520;18.920;2023-10-19T13:25:35;20.08;;;13.05;;
42518;SDS011;28147;47.520;18.920;2023-10-19T13:28:21;20.83;;;12.57;;
42518;SDS011;28147;47.520;18.920;2023-10-19T13:30:50;21.33;;;13.55;;
42518;SDS011;28147;47.520;18.920;2023-10-19T13:33:18;17.92;;;12.23;;
42518;SDS011;28147;47.520;18.920;2023-10-19T13:35:46;18.38;;;11.82;;
42518;SDS011;28147;47.520;18.920;2023-10-19T13:38:13;20.40;;;12.50;;
42518;SDS011;28147;47.520;18.920;2023-10-19T13:40:42;17.10;;;12.10;;
42518;SDS011;28147;47.520;18.920;2023-10-19T13:43:08;18.45;;;11.13;;
42518;SDS011;28147;47.520;18.920;2023-10-19T13:45:38;19.58;;;11.20;;
42518;SDS011;28147;47.520;18.920;2023-10-19T13:48:06;17.95;;;12.18;;
42518;SDS011;28147;47.520;18.920;2023-10-19T13:50:33;18.60;;;11.80;;
42518;SDS011;28147;47.520;18.920;2023-10-19T13:53:00;18.67;;;11.30;;
42518;SDS011;28147;47.520;18.920;2023-10-19T13:55:27;17.30;;;11.77;;
42518;SDS011;28147;47.520;18.920;2023-10-19T13:57:53;17.40;;;12.63;;
42518;SDS011;28147;47.520;18.920;2023-10-19T14:00:21;18.55;;;12.02;;
42518;SDS011;28147;47.520;18.920;2023-10-19T14:02:55;16.15;;;11.85;;
42518;SDS011;28147;47.520;18.920;2023-10-19T14:05:22;16.48;;;10.85;;
42518;SDS011;28147;47.520;18.920;2023-10-19T14:07:49;20.10;;;11.98;;
42518;SDS011;28147;47.520;18.920;2023-10-19T14:10:16;17.58;;;11.52;;
42518;SDS011;28147;47.520;18.920;2023-10-19T14:12:44;21.80;;;11.75;;
42518;SDS011;28147;47.520;18.920;2023-10-19T14:15:14;16.23;;;10.15;;
42518;SDS011;28147;47.520;18.920;2023-10-19T14:17:42;17.27;;;11.68;;
42518;SDS011;28147;47.520;18.920;2023-10-19T14:20:08;18.35;;;11.02;;
42518;SDS011;28147;47.520;18.920;2023-10-19T14:25:09;16.90;;;10.60;;
42518;SDS011;28147;47.520;18.920;2023-10-19T14:27:42;17.58;;;10.90;;
42518;SDS011;28147;47.520;18.920;2023-10-19T14:30:09;21.35;;;12.13;;
42518;SDS011;28147;47.520;18.920;2023-10-19T14:32:38;19.70;;;12.27;;
42518;SDS011;28147;47.520;18.920;2023-10-19T14:35:05;18.63;;;12.55;;
42518;SDS011;28147;47.520;18.920;2023-10-19T14:37:34;17.77;;;11.48;;
42518;SDS011;28147;47.520;18.920;2023-10-19T14:39:59;20.65;;;12.43;;